sensor_id;sensor_type;location;lat;lon;timestamp;P1;durP1;ratioP1;P2;durP2;ratioP2
6185;SDS011;3126;52.738;8.316;2024-03-23T00:57:40;11.70;;;3.92;;
6185;SDS011;3126;52.738;8.316;2024-03-23T01:02:41;18.35;;;4.35;;
6185;SDS011;3126;52.738;8.316;2024-03-23T01:07:42;19.15;;;5.70;;
6185;SDS011;3126;52.738;8.316;2024-03-23T01:12:43;11.10;;;4.55;;
6185;SDS011;3126;52.738;8.316;2024-03-23T01:17:44;17.58;;;4.63;;
6185;SDS011;3126;52.738;8.316;2024-03-23T01:22:45;13.48;;;5.20;;
6185;SDS011;3126;52.738;8.316;2024-03-23T01:27:46;19.42;;;4.93;;
6185;SDS011;3126;52.738;8.316;2024-03-23T01:32:47;15.38;;;5.05;;
6185;SDS011;3126;52.738;8.316;2024-03-23T01:37:48;14.05;;;4.22;;
6185;SDS011;3126;52.738;8.316;2024-03-23T01:42:56;16.83;;;4.40;;
6185;SDS011;3126;52.738;8.316;2024-03-23T01:47:57;15.45;;;4.35;;
6185;SDS011;3126;52.738;8.316;2024-03-23T01:52:58;17.98;;;4.80;;
6185;SDS011;3126;52.738;8.316;2024-03-23T01:57:59;21.27;;;5.25;;
6185;SDS011;3126;52.738;8.316;2024-03-23T02:03:00;13.10;;;4.70;;
6185;SDS011;3126;52.738;8.316;2024-03-23T02:08:01;11.68;;;5.03;;
6185;SDS011;3126;52.738;8.316;2024-03-23T02:13:03;20.85;;;6.10;;
6185;SDS011;3126;52.738;8.316;2024-03-23T02:18:04;22.95;;;6.25;;
6185;SDS011;3126;52.738;8.316;2024-03-23T02:23:05;24.50;;;6.85;;
6185;SDS011;3126;52.738;8.316;2024-03-23T02:28:06;22.25;;;6.30;;
6185;SDS011;3126;52.738;8.316;2024-03-23T02:33:07;21.27;;;6.80;;
6185;SDS011;3126;52.738;8.316;2024-03-23T02:38:08;23.50;;;7.32;;
6185;SDS011;3126;52.738;8.316;2024-03-23T02:43:09;18.05;;;5.70;;
6185;SDS011;3126;52.738;8.316;2024-03-23T02:48:10;23.23;;;6.93;;
6185;SDS011;3126;52.738;8.316;2024-03-23T02:53:11;23.90;;;6.30;;
6185;SDS011;3126;52.738;8.316;2024-03-23T02:58:12;19.50;;;6.78;;
6185;SDS011;3126;52.738;8.316;2024-03-23T03:03:13;27.67;;;6.28;;
6185;SDS011;3126;52.738;8.316;2024-03-23T03:08:14;22.23;;;7.18;;
6185;SDS011;3126;52.738;8.316;2024-03-23T03:13:15;20.40;;;5.90;;
6185;SDS011;3126;52.738;8.316;2024-03-23T03:18:16;23.58;;;6.90;;
6185;SDS011;3126;52.738;8.316;2024-03-23T03:23:17;20.42;;;6.78;;
6185;SDS011;3126;52.738;8.316;2024-03-23T03:28:19;25.58;;;8.07;;
6185;SDS011;3126;52.738;8.316;2024-03-23T03:33:20;20.40;;;6.55;;
6185;SDS011;3126;52.738;8.316;2024-03-23T03:38:21;16.25;;;7.00;;
6185;SDS011;3126;52.738;8.316;2024-03-23T03:43:22;20.70;;;6.50;;
6185;SDS011;3126;52.738;8.316;2024-03-23T03:48:23;22.30;;;6.57;;
6185;SDS011;3126;52.738;8.316;2024-03-23T03:53:25;26.27;;;7.55;;
6185;SDS011;3126;52.738;8.316;2024-03-23T03:58:26;23.55;;;9.00;;
6185;SDS011;3126;52.738;8.316;2024-03-23T04:03:27;27.20;;;8.90;;
6185;SDS011;3126;52.738;8.316;2024-03-23T04:08:28;29.33;;;8.40;;
6185;SDS011;3126;52.738;8.316;2024-03-23T04:13:29;20.42;;;8.13;;
6185;SDS011;3126;52.738;8.316;2024-03-23T04:18:29;25.15;;;6.63;;
6185;SDS011;3126;52.738;8.316;2024-03-23T04:23:30;19.77;;;6.25;;
6185;SDS011;3126;52.738;8.316;2024-03-23T04:28:30;28.48;;;6.00;;
6185;SDS011;3126;52.738;8.316;2024-03-23T04:33:31;19.23;;;5.40;;
6185;SDS011;3126;52.738;8.316;2024-03-23T04:38:32;23.52;;;6.10;;
6185;SDS011;3126;52.738;8.316;2024-03-23T04:43:32;21.50;;;5.82;;
6185;SDS011;3126;52.738;8.316;2024-03-23T04:48:33;20.52;;;5.40;;
6185;SDS011;3126;52.738;8.316;2024-03-23T04:53:33;19.00;;;5.28;;
6185;SDS011;3126;52.738;8.316;2024-03-23T04:58:34;25.52;;;5.93;;
6185;SDS011;3126;52.738;8.316;2024-03-23T05:03:35;21.25;;;4.63;;
6185;SDS011;3126;52.738;8.316;2024-03-23T05:08:36;22.55;;;5.15;;
6185;SDS011;3126;52.738;8.316;2024-03-23T05:13:37;21.25;;;5.20;;
6185;SDS011;3126;52.738;8.316;2024-03-23T05:18:38;22.42;;;4.88;;
6185;SDS011;3126;52.738;8.316;2024-03-23T05:23:39;16.90;;;4.95;;
6185;SDS011;3126;52.738;8.316;2024-03-23T05:28:40;18.83;;;5.18;;
6185;SDS011;3126;52.738;8.316;2024-03-23T05:33:41;16.05;;;5.30;;
6185;SDS011;3126;52.738;8.316;2024-03-23T05:38:42;22.00;;;5.57;;
6185;SDS011;3126;52.738;8.316;2024-03-23T05:43:43;24.58;;;5.68;;
6185;SDS011;3126;52.738;8.316;2024-03-23T05:48:44;21.90;;;5.43;;
6185;SDS011;3126;52.738;8.316;2024-03-23T05:53:45;23.30;;;5.40;;
6185;SDS011;3126;52.738;8.316;2024-03-23T05:58:46;21.50;;;5.50;;
6185;SDS011;3126;52.738;8.316;2024-03-23T06:03:46;23.48;;;5.30;;
6185;SDS011;3126;52.738;8.316;2024-03-23T06:08:47;24.27;;;4.85;;
6185;SDS011;3126;52.738;8.316;2024-03-23T06:13:48;19.77;;;5.40;;
6185;SDS011;3126;52.738;8.316;2024-03-23T06:18:49;21.95;;;5.57;;
6185;SDS011;3126;52.738;8.316;2024-03-23T06:23:53;22.73;;;5.25;;
6185;SDS011;3126;52.738;8.316;2024-03-23T06:28:53;13.07;;;5.05;;
6185;SDS011;3126;52.738;8.316;2024-03-23T06:33:55;23.30;;;5.82;;
6185;SDS011;3126;52.738;8.316;2024-03-23T06:38:55;14.75;;;4.90;;
6185;SDS011;3126;52.738;8.316;2024-03-23T06:43:56;16.58;;;4.68;;
6185;SDS011;3126;52.738;8.316;2024-03-23T06:48:56;20.35;;;5.15;;
6185;SDS011;3126;52.738;8.316;2024-03-23T06:53:57;15.35;;;4.90;;
6185;SDS011;3126;52.738;8.316;2024-03-23T06:58:58;19.40;;;4.50;;
6185;SDS011;3126;52.738;8.316;2024-03-23T07:03:59;18.90;;;5.20;;
6185;SDS011;3126;52.738;8.316;2024-03-23T07:09:00;18.83;;;4.97;;
6185;SDS011;3126;52.738;8.316;2024-03-23T07:14:01;18.35;;;4.85;;
6185;SDS011;3126;52.738;8.316;2024-03-23T07:24:06;16.73;;;4.68;;
6185;SDS011;3126;52.738;8.316;2024-03-23T07:29:07;23.85;;;5.60;;
6185;SDS011;3126;52.738;8.316;2024-03-23T07:34:08;12.43;;;3.95;;
6185;SDS011;3126;52.738;8.316;2024-03-23T07:39:09;15.13;;;3.90;;
6185;SDS011;3126;52.738;8.316;2024-03-23T07:44:10;14.55;;;4.72;;
6185;SDS011;3126;52.738;8.316;2024-03-23T07:49:11;16.73;;;3.83;;
6185;SDS011;3126;52.738;8.316;2024-03-23T07:54:12;17.30;;;4.10;;
6185;SDS011;3126;52.738;8.316;2024-03-23T07:59:13;15.57;;;4.10;;
6185;SDS011;3126;52.738;8.316;2024-03-23T08:04:14;15.52;;;3.65;;
6185;SDS011;3126;52.738;8.316;2024-03-23T08:09:15;12.60;;;3.72;;
6185;SDS011;3126;52.738;8.316;2024-03-23T08:14:16;7.43;;;2.65;;
6185;SDS011;3126;52.738;8.316;2024-03-23T08:19:17;15.30;;;4.00;;
6185;SDS011;3126;52.738;8.316;2024-03-23T08:24:18;7.93;;;2.58;;
6185;SDS011;3126;52.738;8.316;2024-03-23T08:29:19;7.05;;;2.53;;
6185;SDS011;3126;52.738;8.316;2024-03-23T08:34:20;13.55;;;3.45;;
6185;SDS011;3126;52.738;8.316;2024-03-23T08:39:21;18.52;;;2.80;;
6185;SDS011;3126;52.738;8.316;2024-03-23T08:44:22;8.85;;;2.10;;
6185;SDS011;3126;52.738;8.316;2024-03-23T08:49:23;4.82;;;1.70;;
6185;SDS011;3126;52.738;8.316;2024-03-23T08:54:24;5.55;;;2.13;;
6185;SDS011;3126;52.738;8.316;2024-03-23T08:59:27;8.88;;;3.10;;
6185;SDS011;3126;52.738;8.316;2024-03-23T09:04:28;6.45;;;2.30;;
6185;SDS011;3126;52.738;8.316;2024-03-23T09:09:29;7.82;;;2.30;;
6185;SDS011;3126;52.738;8.316;2024-03-23T09:14:30;5.22;;;2.40;;
6185;SDS011;3126;52.738;8.316;2024-03-23T09:19:31;8.55;;;3.03;;
6185;SDS011;3126;52.738;8.316;2024-03-23T09:24:32;5.43;;;3.47;;
6185;SDS011;3126;52.738;8.316;2024-03-23T09:29:33;12.35;;;3.33;;
6185;SDS011;3126;52.738;8.316;2024-03-23T09:34:34;7.35;;;3.03;;
6185;SDS011;3126;52.738;8.316;2024-03-23T09:39:35;4.68;;;2.45;;
6185;SDS011;3126;52.738;8.316;2024-03-23T09:44:35;5.88;;;2.65;;
6185;SDS011;3126;52.738;8.316;2024-03-23T09:49:37;2.10;;;1.40;;
6185;SDS011;3126;52.738;8.316;2024-03-23T09:54:38;8.52;;;2.33;;
6185;SDS011;3126;52.738;8.316;2024-03-23T09:59:39;4.00;;;1.70;;
6185;SDS011;3126;52.738;8.316;2024-03-23T10:04:40;3.00;;;0.90;;
6185;SDS011;3126;52.738;8.316;2024-03-23T10:09:41;2.92;;;0.95;;
6185;SDS011;3126;52.738;8.316;2024-03-23T10:14:42;2.53;;;0.60;;
6185;SDS011;3126;52.738;8.316;2024-03-23T10:19:44;4.10;;;0.85;;
6185;SDS011;3126;52.738;8.316;2024-03-23T10:24:45;0.60;;;0.40;;
6185;SDS011;3126;52.738;8.316;2024-03-23T10:29:47;2.13;;;0.75;;
6185;SDS011;3126;52.738;8.316;2024-03-23T10:34:48;6.30;;;1.35;;
6185;SDS011;3126;52.738;8.316;2024-03-23T10:39:49;3.15;;;1.10;;
6185;SDS011;3126;52.738;8.316;2024-03-23T10:44:50;4.63;;;1.80;;
6185;SDS011;3126;52.738;8.316;2024-03-23T10:49:53;2.97;;;1.60;;
6185;SDS011;3126;52.738;8.316;2024-03-23T10:54:54;8.05;;;1.73;;
6185;SDS011;3126;52.738;8.316;2024-03-23T10:59:56;5.10;;;1.77;;
6185;SDS011;3126;52.738;8.316;2024-03-23T11:04:57;9.07;;;3.55;;
6185;SDS011;3126;52.738;8.316;2024-03-23T11:09:58;4.75;;;1.98;;
6185;SDS011;3126;52.738;8.316;2024-03-23T11:15:09;5.72;;;2.92;;
6185;SDS011;3126;52.738;8.316;2024-03-23T11:20:11;5.30;;;2.65;;
6185;SDS011;3126;52.738;8.316;2024-03-23T11:30:26;4.10;;;2.10;;
6185;SDS011;3126;52.738;8.316;2024-03-23T11:35:31;4.13;;;2.03;;
6185;SDS011;3126;52.738;8.316;2024-03-23T11:40:37;6.18;;;1.08;;
6185;SDS011;3126;52.738;8.316;2024-03-23T11:50:44;8.38;;;1.85;;
6185;SDS011;3126;52.738;8.316;2024-03-23T11:55:49;9.63;;;1.90;;
6185;SDS011;3126;52.738;8.316;2024-03-23T12:00:57;3.47;;;1.33;;
6185;SDS011;3126;52.738;8.316;2024-03-23T12:06:00;3.40;;;1.40;;
6185;SDS011;3126;52.738;8.316;2024-03-23T12:11:12;5.10;;;1.90;;
6185;SDS011;3126;52.738;8.316;2024-03-23T12:16:16;2.90;;;1.02;;
6185;SDS011;3126;52.738;8.316;2024-03-23T12:21:17;3.08;;;0.95;;
6185;SDS011;3126;52.738;8.316;2024-03-23T12:26:18;1.98;;;1.00;;
6185;SDS011;3126;52.738;8.316;2024-03-23T12:31:19;2.30;;;0.75;;
6185;SDS011;3126;52.738;8.316;2024-03-23T12:36:20;7.38;;;1.20;;
6185;SDS011;3126;52.738;8.316;2024-03-23T12:41:21;4.22;;;1.42;;
6185;SDS011;3126;52.738;8.316;2024-03-23T12:46:21;5.95;;;1.40;;
6185;SDS011;3126;52.738;8.316;2024-03-23T12:51:23;7.60;;;2.25;;
6185;SDS011;3126;52.738;8.316;2024-03-23T12:56:23;7.05;;;1.77;;
6185;SDS011;3126;52.738;8.316;2024-03-23T13:01:24;1.63;;;1.10;;
6185;SDS011;3126;52.738;8.316;2024-03-23T13:06:25;4.50;;;1.50;;
6185;SDS011;3126;52.738;8.316;2024-03-23T13:11:27;7.22;;;1.33;;
6185;SDS011;3126;52.738;8.316;2024-03-23T13:16:28;2.75;;;0.80;;
6185;SDS011;3126;52.738;8.316;2024-03-23T13:21:29;2.85;;;0.73;;
6185;SDS011;3126;52.738;8.316;2024-03-23T13:26:30;1.05;;;0.77;;
6185;SDS011;3126;52.738;8.316;2024-03-23T13:31:31;3.03;;;0.70;;
6185;SDS011;3126;52.738;8.316;2024-03-23T13:36:32;1.55;;;0.60;;
6185;SDS011;3126;52.738;8.316;2024-03-23T13:41:33;2.75;;;1.15;;
6185;SDS011;3126;52.738;8.316;2024-03-23T13:46:34;4.25;;;1.55;;
6185;SDS011;3126;52.738;8.316;2024-03-23T13:51:35;6.15;;;1.88;;
6185;SDS011;3126;52.738;8.316;2024-03-23T13:56:36;3.40;;;1.42;;
6185;SDS011;3126;52.738;8.316;2024-03-23T14:01:37;3.17;;;1.55;;
6185;SDS011;3126;52.738;8.316;2024-03-23T14:06:38;4.97;;;1.10;;
6185;SDS011;3126;52.738;8.316;2024-03-23T14:11:39;3.13;;;1.20;;
6185;SDS011;3126;52.738;8.316;2024-03-23T14:16:45;2.22;;;1.13;;
6185;SDS011;3126;52.738;8.316;2024-03-23T14:21:46;2.72;;;1.40;;
6185;SDS011;3126;52.738;8.316;2024-03-23T14:26:47;5.95;;;2.08;;
6185;SDS011;3126;52.738;8.316;2024-03-23T14:31:48;2.53;;;1.02;;
6185;SDS011;3126;52.738;8.316;2024-03-23T14:36:49;5.10;;;1.60;;
6185;SDS011;3126;52.738;8.316;2024-03-23T14:41:50;2.58;;;1.20;;
6185;SDS011;3126;52.738;8.316;2024-03-23T14:46:51;6.35;;;1.38;;
6185;SDS011;3126;52.738;8.316;2024-03-23T14:51:52;2.83;;;1.27;;
6185;SDS011;3126;52.738;8.316;2024-03-23T14:56:53;6.03;;;1.30;;
6185;SDS011;3126;52.738;8.316;2024-03-23T15:01:56;1.83;;;1.25;;
6185;SDS011;3126;52.738;8.316;2024-03-23T15:06:57;3.78;;;1.52;;
6185;SDS011;3126;52.738;8.316;2024-03-23T15:11:58;3.30;;;0.88;;
6185;SDS011;3126;52.738;8.316;2024-03-23T15:16:59;5.15;;;1.58;;
6185;SDS011;3126;52.738;8.316;2024-03-23T15:22:00;3.92;;;1.60;;
6185;SDS011;3126;52.738;8.316;2024-03-23T15:27:01;2.97;;;1.20;;
6185;SDS011;3126;52.738;8.316;2024-03-23T15:32:02;8.43;;;1.95;;
6185;SDS011;3126;52.738;8.316;2024-03-23T15:37:04;5.95;;;1.67;;
6185;SDS011;3126;52.738;8.316;2024-03-23T15:42:05;52.13;;;5.15;;
6185;SDS011;3126;52.738;8.316;2024-03-23T15:47:07;8.25;;;2.28;;
6185;SDS011;3126;52.738;8.316;2024-03-23T15:52:07;32.83;;;4.60;;
6185;SDS011;3126;52.738;8.316;2024-03-23T15:57:08;11.23;;;4.45;;
6185;SDS011;3126;52.738;8.316;2024-03-23T16:02:09;4.93;;;2.00;;
6185;SDS011;3126;52.738;8.316;2024-03-23T16:07:11;7.82;;;3.03;;
6185;SDS011;3126;52.738;8.316;2024-03-23T16:12:13;8.25;;;2.95;;
6185;SDS011;3126;52.738;8.316;2024-03-23T16:17:14;2.58;;;1.23;;
6185;SDS011;3126;52.738;8.316;2024-03-23T16:22:15;5.47;;;1.45;;
6185;SDS011;3126;52.738;8.316;2024-03-23T16:27:16;3.17;;;1.75;;
6185;SDS011;3126;52.738;8.316;2024-03-23T16:32:17;5.13;;;1.42;;
6185;SDS011;3126;52.738;8.316;2024-03-23T16:37:18;4.32;;;2.20;;
6185;SDS011;3126;52.738;8.316;2024-03-23T16:42:19;3.63;;;1.27;;
6185;SDS011;3126;52.738;8.316;2024-03-23T16:47:21;6.20;;;1.50;;
6185;SDS011;3126;52.738;8.316;2024-03-23T16:52:22;2.08;;;1.23;;
6185;SDS011;3126;52.738;8.316;2024-03-23T16:57:23;4.00;;;1.20;;
6185;SDS011;3126;52.738;8.316;2024-03-23T17:02:24;2.50;;;1.13;;
6185;SDS011;3126;52.738;8.316;2024-03-23T17:07:24;4.90;;;1.20;;
6185;SDS011;3126;52.738;8.316;2024-03-23T17:12:25;5.70;;;1.48;;
6185;SDS011;3126;52.738;8.316;2024-03-23T17:17:26;3.50;;;1.30;;
6185;SDS011;3126;52.738;8.316;2024-03-23T17:22:28;5.13;;;1.45;;
6185;SDS011;3126;52.738;8.316;2024-03-23T17:27:29;7.13;;;1.35;;
6185;SDS011;3126;52.738;8.316;2024-03-23T17:32:30;3.83;;;1.90;;
6185;SDS011;3126;52.738;8.316;2024-03-23T17:37:31;4.97;;;1.73;;
6185;SDS011;3126;52.738;8.316;2024-03-23T17:42:32;4.05;;;1.75;;
6185;SDS011;3126;52.738;8.316;2024-03-23T17:47:37;9.48;;;1.60;;
6185;SDS011;3126;52.738;8.316;2024-03-23T17:52:38;7.45;;;1.60;;
6185;SDS011;3126;52.738;8.316;2024-03-23T17:57:43;4.35;;;1.80;;
6185;SDS011;3126;52.738;8.316;2024-03-23T18:02:44;1.77;;;1.20;;
6185;SDS011;3126;52.738;8.316;2024-03-23T18:07:45;2.67;;;1.60;;
6185;SDS011;3126;52.738;8.316;2024-03-23T18:12:46;2.20;;;1.20;;
6185;SDS011;3126;52.738;8.316;2024-03-23T18:17:48;3.22;;;1.38;;
6185;SDS011;3126;52.738;8.316;2024-03-23T18:22:52;6.22;;;2.13;;
6185;SDS011;3126;52.738;8.316;2024-03-23T18:27:53;4.00;;;1.70;;
6185;SDS011;3126;52.738;8.316;2024-03-23T18:32:53;6.63;;;2.80;;
6185;SDS011;3126;52.738;8.316;2024-03-23T18:37:54;7.30;;;2.15;;
6185;SDS011;3126;52.738;8.316;2024-03-23T18:42:55;6.63;;;2.60;;
6185;SDS011;3126;52.738;8.316;2024-03-23T18:47:56;4.95;;;2.53;;
6185;SDS011;3126;52.738;8.316;2024-03-23T18:52:57;8.02;;;3.17;;
6185;SDS011;3126;52.738;8.316;2024-03-23T18:57:58;7.32;;;3.10;;
6185;SDS011;3126;52.738;8.316;2024-03-23T19:02:59;4.20;;;1.80;;
6185;SDS011;3126;52.738;8.316;2024-03-23T19:08:01;3.65;;;1.92;;
6185;SDS011;3126;52.738;8.316;2024-03-23T19:13:03;6.55;;;2.28;;
6185;SDS011;3126;52.738;8.316;2024-03-23T19:18:04;2.60;;;1.77;;
6185;SDS011;3126;52.738;8.316;2024-03-23T19:23:06;5.57;;;2.30;;
6185;SDS011;3126;52.738;8.316;2024-03-23T19:28:08;5.85;;;2.38;;
6185;SDS011;3126;52.738;8.316;2024-03-23T19:33:09;6.45;;;3.05;;
6185;SDS011;3126;52.738;8.316;2024-03-23T19:38:10;6.15;;;2.72;;
6185;SDS011;3126;52.738;8.316;2024-03-23T19:43:11;5.07;;;2.50;;
6185;SDS011;3126;52.738;8.316;2024-03-23T19:48:12;7.35;;;2.45;;
6185;SDS011;3126;52.738;8.316;2024-03-23T19:53:12;3.75;;;1.75;;
6185;SDS011;3126;52.738;8.316;2024-03-23T19:58:13;7.15;;;3.10;;
6185;SDS011;3126;52.738;8.316;2024-03-23T20:03:14;6.90;;;2.88;;
6185;SDS011;3126;52.738;8.316;2024-03-23T20:08:15;4.90;;;2.50;;
6185;SDS011;3126;52.738;8.316;2024-03-23T20:13:16;5.32;;;2.45;;
6185;SDS011;3126;52.738;8.316;2024-03-23T20:18:17;7.40;;;2.65;;
6185;SDS011;3126;52.738;8.316;2024-03-23T20:23:18;4.35;;;2.35;;
6185;SDS011;3126;52.738;8.316;2024-03-23T20:28:20;3.42;;;2.22;;
6185;SDS011;3126;52.738;8.316;2024-03-23T20:33:21;4.78;;;2.17;;
6185;SDS011;3126;52.738;8.316;2024-03-23T20:38:22;6.55;;;2.55;;
6185;SDS011;3126;52.738;8.316;2024-03-23T20:43:23;5.28;;;2.40;;
6185;SDS011;3126;52.738;8.316;2024-03-23T20:48:24;3.38;;;2.28;;
6185;SDS011;3126;52.738;8.316;2024-03-23T20:53:27;2.53;;;2.05;;
6185;SDS011;3126;52.738;8.316;2024-03-23T20:58:29;5.82;;;1.67;;
6185;SDS011;3126;52.738;8.316;2024-03-23T21:03:30;5.80;;;2.10;;
6185;SDS011;3126;52.738;8.316;2024-03-23T21:08:33;5.60;;;3.00;;
6185;SDS011;3126;52.738;8.316;2024-03-23T21:13:34;6.43;;;2.08;;
6185;SDS011;3126;52.738;8.316;2024-03-23T21:18:35;3.53;;;1.90;;
6185;SDS011;3126;52.738;8.316;2024-03-23T21:23:36;4.00;;;2.60;;
6185;SDS011;3126;52.738;8.316;2024-03-23T21:28:37;4.60;;;1.58;;
6185;SDS011;3126;52.738;8.316;2024-03-23T21:33:39;4.20;;;1.67;;
6185;SDS011;3126;52.738;8.316;2024-03-23T21:38:39;5.70;;;1.83;;
6185;SDS011;3126;52.738;8.316;2024-03-23T21:43:40;4.63;;;1.88;;
6185;SDS011;3126;52.738;8.316;2024-03-23T21:48:41;4.68;;;1.42;;
6185;SDS011;3126;52.738;8.316;2024-03-23T21:53:43;3.03;;;1.50;;
6185;SDS011;3126;52.738;8.316;2024-03-23T21:58:44;7.40;;;1.70;;
6185;SDS011;3126;52.738;8.316;2024-03-23T22:03:45;5.57;;;2.33;;
6185;SDS011;3126;52.738;8.316;2024-03-23T22:08:46;3.38;;;2.30;;
6185;SDS011;3126;52.738;8.316;2024-03-23T22:13:47;4.30;;;2.17;;
6185;SDS011;3126;52.738;8.316;2024-03-23T22:18:48;5.00;;;2.17;;
6185;SDS011;3126;52.738;8.316;2024-03-23T22:23:50;4.15;;;2.50;;
6185;SDS011;3126;52.738;8.316;2024-03-23T22:28:51;3.45;;;2.53;;
6185;SDS011;3126;52.738;8.316;2024-03-23T22:33:52;5.28;;;2.40;;
6185;SDS011;3126;52.738;8.316;2024-03-23T22:38:53;5.18;;;3.35;;
6185;SDS011;3126;52.738;8.316;2024-03-23T22:43:54;3.00;;;1.88;;
6185;SDS011;3126;52.738;8.316;2024-03-23T22:48:55;4.70;;;2.13;;
6185;SDS011;3126;52.738;8.316;2024-03-23T22:53:56;3.78;;;2.25;;
6185;SDS011;3126;52.738;8.316;2024-03-23T22:58:57;4.70;;;2.92;;
6185;SDS011;3126;52.738;8.316;2024-03-23T23:03:58;3.60;;;2.55;;
6185;SDS011;3126;52.738;8.316;2024-03-23T23:08:59;6.15;;;3.08;;
6185;SDS011;3126;52.738;8.316;2024-03-23T23:14:00;4.28;;;2.63;;
6185;SDS011;3126;52.738;8.316;2024-03-23T23:19:02;5.50;;;2.63;;
6185;SDS011;3126;52.738;8.316;2024-03-23T23:24:04;5.35;;;2.58;;
6185;SDS011;3126;52.738;8.316;2024-03-23T23:29:05;6.03;;;2.50;;
6185;SDS011;3126;52.738;8.316;2024-03-23T23:34:06;3.75;;;3.00;;
6185;SDS011;3126;52.738;8.316;2024-03-23T23:39:07;5.85;;;3.10;;
6185;SDS011;3126;52.738;8.316;2024-03-23T23:44:08;6.03;;;3.17;;
6185;SDS011;3126;52.738;8.316;2024-03-23T23:49:09;7.57;;;3.22;;
6185;SDS011;3126;52.738;8.316;2024-03-23T23:54:10;5.88;;;2.97;;
6185;SDS011;3126;52.738;8.316;2024-03-23T23:59:11;6.85;;;3.38;;
